AirNav   Everest Fuels
 
 1551 users online  

OK02 Dick's Airport
Goldsby, Oklahoma, USA

GOING TO GOLDSBY?


FAA INFORMATION EFFECTIVE 03 NOVEMBER 2022

Location

FAA Identifier: OK02
Lat/Long: 35-06-39.0000N 097-28-54.0000W
35-06.650000N 097-28.900000W
35.1108333,-97.4816667
(estimated)
Elevation: 1160 ft. / 354 m (estimated)
From city: 2 miles S of GOLDSBY, OK
Time zone: UTC -6 (UTC -5 during Daylight Saving Time)
Zip code: 73093

Airport Operations

Airport use: Private use. Permission required prior to landing
Activation date: 02/2005
Control tower: no
ARTCC: FORT WORTH CENTER
FSS: MC ALESTER FLIGHT SERVICE STATION
Attendance: UNATNDD
Segmented circle: no

Airport Communications

WX AWOS-3 at OUN (8 nm N): 119.55 (405-325-7302)
WX ASOS at OKC (18 nm N): PHONE 405-686-4711

Nearby radio navigation aids

VOR radial/distance  VOR name  Freq  Var
IRWr150/16.1WILL ROGERS VORTAC114.1007E
PWAr154/26.6WILEY POST VOR/DME113.4008E

 
NDB name  Hdg/Dist  Freq  Var  ID
GALLY150/12.235005ERG .-. --.

Airport Services

Runway Information

Runway 17/35

Dimensions: 2700 x 75 ft. / 823 x 23 m
Surface: turf
RUNWAY 17  RUNWAY 35
Traffic pattern: rightleft

Airport Ownership and Management from official FAA records

Ownership: Privately-owned
Owner: RICHARD ALLEN HUTTON
1300 BROOKHAVEN BLVD
NORMAN, OK 73072
Phone 337-421-6400
Manager: LARVELL LOVE
1300 BROOKHAVEN BLVD
NORMAN, OK 73072
Phone 337-421-6411

Airport Operational Statistics

Aircraft based on the field: 2
Single engine airplanes: 2
    

Additional Remarks

FOR CD CTC OKE CITY APCH AT 405-681-5683.

Instrument Procedures

There are no published instrument procedures at OK02.

Some nearby airports with instrument procedures:

1K4 - David Jay Perry Airport (3 nm N)
KOUN - University of Oklahoma Westheimer Airport (8 nm N)
KHMY - Muldrow Army Heliport (13 nm E)
KOKC - Will Rogers World Airport (18 nm N)
KTIK - Tinker Air Force Base (19 nm N)
 
Loc | Ops | Rwys | IFR | FBO | Links
Com | Nav | Svcs | Stats | Notes
Area around OK02 (Dick's Airport)
 
Road maps at: MapQuest Bing Google
 
Aerial photo
No photo
 
Sectional chart

 
Airport distance calculator
Flying to Dick's Airport? Find the distance to fly.

From to OK02

Sunrise and sunset
Times for 29-Nov-2022
 Local
(UTC-6)
 Zulu
(UTC)
Morning civil twilight06:5112:51
Sunrise07:1913:19
Sunset17:1723:17
Evening civil twilight17:4523:45

Current date and time
Zulu (UTC)  29-Nov-2022 18:46:24
Local (UTC-6)  29-Nov-2022 12:46:24
 
METAR
KOUN 
7nm N 
291750Z 20012G21KT 10SM CLR 19/08 A2965
KOKC 
17nm N 
291752Z 27014KT 10SM FEW038 18/07 A2967 RMK AO2 SLP041 T01780072 10178 20111 51018
KTIK 
19nm N 
291755Z AUTO 26014G21KT 10SM CLR 18/05 A2963 RMK AO2 SLP035 T01830052 10188 20116 52015 $
TAF
KOUN 
7nm N 
291726Z 2918/3018 24017G24KT P6SM SKC FM292000 34018G27KT P6SM SCT090 TEMPO 3000/3003 34025G31KT FM300800 35014KT P6SM SKC FM300900 35010KT P6SM SKC
KOKC 
17nm N 
291726Z 2918/3018 26017G24KT P6SM SKC FM292000 34018G27KT P6SM SCT090 TEMPO 3000/3003 34025G32KT FM300800 35014KT P6SM SKC FM300900 35010KT P6SM SKC
KTIK 
19nm N 
291000Z 2910/3016 17012G20KT 9999 SCT250 WS020/21050KT QNH2955INS BECMG 2914/2915 21015G25KT 9999 BKN250 510053 QNH2957INS BECMG 2923/2924 33020G30KT 9999 BKN200 510053 QNH2971INS BECMG 3005/3006 35012G20KT 9999 FEW150 510023 QNH3015INS TX19/2920Z TN02/3007Z
NOTAMs
Click for the latest NOTAMs
NOTAMs are issued by the DoD/FAA and will open in a separate window not controlled by AirNav.

 

 
 

Would you like to see your business listed on this page?

 If your business provides an interesting product or service to pilots, flight crews, aircraft, or users of the Dick's Airport, you should consider listing it here.  To start the listing process, click on the button below
 
Add a business
 

Other Pages about Dick's Airport

Update a link
 
Copyright © AirNav, LLC. All rights reserved. Privacy Policy  Contact